Time;durP1;ratioP1;P1;durP2;ratioP2;P2;SDS_P1;SDS_P2;PMS_P1;PMS_P2;Temp;Humidity;BMP_temperature;BMP_pressure;BME280_temperature;BME280_humidity;BME280_pressure;Samples;Min_cycle;Max_cycle;Signal;HPM_P1;HPM_P2
2022/11/18 00:01:36;;;;;;;31.37;17.13;;;7.50;99.90;;;;;;5033777;28;20458;-67
2022/11/18 00:04:03;;;;;;;28.43;18.30;;;7.50;99.90;;;;;;5032947;28;20474;-67
2022/11/18 00:06:30;;;;;;;42.27;20.50;;;7.50;99.90;;;;;;5033965;28;20446;-67
2022/11/18 00:08:59;;;;;;;30.90;18.73;;;7.50;99.90;;;;;;5033717;28;20881;-67
2022/11/18 00:14:21;;;;;;;33.27;19.17;;;7.60;99.90;;;;;;5033544;28;20746;-67
2022/11/18 00:16:50;;;;;;;29.93;19.10;;;7.60;99.90;;;;;;5033791;28;20971;-67
2022/11/18 00:19:17;;;;;;;31.90;19.80;;;7.60;99.90;;;;;;5032768;28;20516;-67
2022/11/18 00:21:44;;;;;;;34.30;19.50;;;7.60;99.90;;;;;;5032814;28;20446;-67
2022/11/18 00:24:11;;;;;;;34.50;20.23;;;7.60;99.90;;;;;;5033627;28;20480;-67
2022/11/18 00:26:39;;;;;;;32.30;19.67;;;7.60;99.90;;;;;;5033769;28;20457;-67
2022/11/18 00:29:06;;;;;;;30.67;18.73;;;7.60;99.90;;;;;;5033164;28;20457;-67
2022/11/18 00:31:32;;;;;;;38.77;20.83;;;7.60;99.90;;;;;;5033144;28;20477;-67
2022/11/18 00:33:59;;;;;;;34.83;20.70;;;7.60;99.90;;;;;;5032920;28;20478;-67
2022/11/18 00:36:26;;;;;;;34.77;20.00;;;7.70;99.90;;;;;;5033540;28;20450;-67
2022/11/18 00:38:53;;;;;;;40.97;21.30;;;7.70;99.90;;;;;;5033372;28;20968;-67
2022/11/18 00:41:20;;;;;;;41.43;22.27;;;7.70;99.90;;;;;;5032712;28;20466;-67
2022/11/18 00:43:47;;;;;;;37.10;20.20;;;7.70;99.90;;;;;;5027439;28;20529;-65
2022/11/18 00:46:13;;;;;;;46.47;21.70;;;7.60;99.90;;;;;;5032904;28;20545;-66
2022/11/18 00:48:40;;;;;;;36.53;19.83;;;7.60;99.90;;;;;;5033317;28;20465;-66
2022/11/18 00:51:13;;;;;;;37.47;21.93;;;7.60;99.90;;;;;;5032827;28;20461;-66
2022/11/18 00:53:39;;;;;;;36.93;20.90;;;7.70;99.90;;;;;;5033102;28;20486;-66
2022/11/18 00:56:07;;;;;;;36.77;21.03;;;7.70;99.90;;;;;;5032546;28;20454;-66
2022/11/18 00:58:34;;;;;;;41.57;21.30;;;7.70;99.90;;;;;;5033239;28;20454;-65
2022/11/18 01:01:03;;;;;;;34.23;20.37;;;7.70;99.90;;;;;;5032099;28;20545;-65
2022/11/18 01:03:30;;;;;;;35.13;21.50;;;7.70;99.90;;;;;;5032656;28;20835;-66
2022/11/18 01:05:57;;;;;;;44.07;21.40;;;7.70;99.90;;;;;;5032550;28;20450;-66
2022/11/18 01:08:24;;;;;;;43.50;19.67;;;7.70;99.90;;;;;;5032573;28;20456;-66
2022/11/18 01:10:52;;;;;;;33.53;19.87;;;7.80;99.90;;;;;;5031699;28;20489;-66
2022/11/18 01:13:19;;;;;;;33.77;20.70;;;7.70;99.90;;;;;;5031842;28;20497;-65
2022/11/18 01:15:48;;;;;;;40.63;20.60;;;7.70;99.90;;;;;;5031976;28;20450;-66
2022/11/18 01:18:17;;;;;;;39.20;21.90;;;7.80;99.90;;;;;;5017388;28;20450;-65
2022/11/18 01:20:44;;;;;;;40.10;19.77;;;7.80;99.90;;;;;;5031754;28;20478;-66
2022/11/18 01:23:11;;;;;;;45.53;20.27;;;7.80;99.90;;;;;;5032299;28;20473;-66
2022/11/18 01:25:39;;;;;;;35.13;19.10;;;7.80;99.90;;;;;;5031754;28;21000;-66
2022/11/18 01:28:06;;;;;;;40.43;21.00;;;7.80;99.90;;;;;;5032494;28;20458;-66
2022/11/18 01:30:34;;;;;;;39.40;20.90;;;7.80;99.90;;;;;;5031898;28;20466;-66
2022/11/18 01:33:01;;;;;;;36.27;20.67;;;7.80;99.90;;;;;;5031730;28;20519;-66
2022/11/18 01:35:29;;;;;;;41.53;20.77;;;7.80;99.90;;;;;;5032196;28;20464;-66
2022/11/18 01:37:56;;;;;;;41.37;21.03;;;7.80;99.90;;;;;;5032251;28;20450;-66
2022/11/18 01:40:23;;;;;;;41.97;20.20;;;7.80;99.90;;;;;;5031396;28;20459;-66
2022/11/18 01:42:49;;;;;;;43.73;21.60;;;7.90;99.90;;;;;;5031814;28;20474;-66
2022/11/18 01:45:32;;;;;;;38.60;19.43;;;7.80;99.90;;;;;;5031922;28;20449;-66
2022/11/18 01:48:03;;;;;;;41.70;20.60;;;7.80;99.90;;;;;;5032182;28;20446;-66
2022/11/18 01:50:33;;;;;;;43.27;21.90;;;7.80;99.90;;;;;;5031233;28;20454;-66
2022/11/18 01:53:05;;;;;;;50.67;21.33;;;7.80;99.90;;;;;;5031502;28;20490;-66
2022/11/18 01:55:35;;;;;;;42.43;21.70;;;7.90;99.90;;;;;;5031389;28;20998;-66
2022/11/18 01:58:09;;;;;;;39.90;21.20;;;7.90;99.90;;;;;;5032195;28;20446;-66
2022/11/18 02:00:36;;;;;;;44.07;22.60;;;7.90;99.90;;;;;;5031343;28;20949;-66
2022/11/18 02:03:04;;;;;;;49.60;21.73;;;7.90;99.90;;;;;;5031765;28;20474;-66
2022/11/18 02:05:33;;;;;;;53.50;21.60;;;7.90;99.90;;;;;;5031371;28;20454;-66
2022/11/18 02:08:01;;;;;;;39.77;21.70;;;7.90;99.90;;;;;;5031796;28;20458;-67
2022/11/18 02:10:28;;;;;;;60.37;21.50;;;7.90;99.90;;;;;;5031464;28;20455;-67
2022/11/18 02:12:56;;;;;;;50.17;20.80;;;7.80;99.90;;;;;;5031565;28;21039;-66
2022/11/18 02:15:34;;;;;;;63.73;21.83;;;7.80;99.90;;;;;;5031377;28;20473;-66
2022/11/18 02:18:08;;;;;;;67.83;23.27;;;7.80;99.90;;;;;;5031614;28;20457;-66
2022/11/18 02:20:39;;;;;;;43.47;21.40;;;7.70;99.90;;;;;;5031186;28;20453;-66
2022/11/18 02:23:41;;;;;;;60.03;23.40;;;7.70;99.90;;;;;;5031157;28;20481;-67
2022/11/18 02:26:54;;;;;;;105.50;25.07;;;7.70;99.90;;;;;;5012213;28;20677;-67
2022/11/18 02:29:25;;;;;;;73.10;22.40;;;7.80;99.90;;;;;;5016830;28;20457;-67
2022/11/18 02:31:58;;;;;;;113.60;23.20;;;7.80;99.90;;;;;;5030945;28;20458;-67
2022/11/18 02:34:35;;;;;;;132.13;23.30;;;7.80;99.90;;;;;;5031645;28;20500;-67
2022/11/18 02:37:08;;;;;;;133.77;22.50;;;7.80;99.90;;;;;;5031583;28;20450;-67
2022/11/18 02:39:39;;;;;;;91.07;21.20;;;7.80;99.90;;;;;;5031503;28;20461;-67
2022/11/18 02:42:10;;;;;;;247.23;23.83;;;7.80;99.90;;;;;;5030939;28;20454;-67
2022/11/18 02:44:42;;;;;;;219.97;23.50;;;7.90;99.90;;;;;;5032598;28;20478;-67
2022/11/18 02:47:13;;;;;;;170.03;22.03;;;7.90;99.90;;;;;;5034928;28;20515;-67
2022/11/18 02:49:44;;;;;;;186.77;22.37;;;7.90;99.90;;;;;;5035132;28;20457;-67
2022/11/18 02:52:13;;;;;;;189.53;20.90;;;7.90;99.90;;;;;;5035071;28;20856;-67
2022/11/18 02:54:43;;;;;;;116.47;21.40;;;7.90;99.90;;;;;;5035056;28;20497;-67
2022/11/18 02:57:11;;;;;;;306.53;24.70;;;7.90;99.90;;;;;;5035140;28;20450;-67
2022/11/18 02:59:39;;;;;;;305.87;24.10;;;7.90;99.90;;;;;;5034697;28;20445;-67
2022/11/18 03:02:06;;;;;;;318.70;21.73;;;7.90;99.90;;;;;;5034431;28;20461;-67
2022/11/18 03:04:34;;;;;;;169.80;19.50;;;7.90;99.90;;;;;;5035018;28;20466;-67
2022/11/18 03:07:10;;;;;;;224.10;20.37;;;7.90;99.90;;;;;;5034972;28;20450;-67
2022/11/18 03:09:39;;;;;;;195.73;18.90;;;7.90;99.90;;;;;;5034827;28;20457;-67
2022/11/18 03:12:15;;;;;;;194.73;18.67;;;7.80;99.90;;;;;;5034857;28;20453;-67
2022/11/18 03:14:51;;;;;;;173.47;17.47;;;7.80;99.90;;;;;;5034903;28;20466;-67
2022/11/18 03:17:23;;;;;;;196.53;17.73;;;7.80;99.90;;;;;;5018753;28;20807;-67
2022/11/18 03:20:02;;;;;;;98.13;15.10;;;7.70;99.90;;;;;;5034608;28;20937;-67
2022/11/18 03:22:34;;;;;;;158.80;16.33;;;7.70;99.90;;;;;;5034645;28;20759;-67
2022/11/18 03:25:05;;;;;;;40.57;11.67;;;7.70;99.90;;;;;;5033947;28;20489;-67
2022/11/18 03:27:36;;;;;;;38.90;12.10;;;7.70;99.90;;;;;;5034465;28;20861;-67
2022/11/18 03:30:08;;;;;;;59.27;11.70;;;7.70;99.90;;;;;;5034482;28;20454;-67
2022/11/18 03:32:40;;;;;;;40.20;11.70;;;7.70;99.90;;;;;;5034365;28;20812;-67
2022/11/18 03:35:10;;;;;;;89.83;13.57;;;7.70;99.90;;;;;;5034536;28;20464;-67
2022/11/18 03:37:40;;;;;;;122.00;13.60;;;7.70;99.90;;;;;;5034421;28;20454;-67
2022/11/18 03:40:15;;;;;;;62.23;11.70;;;7.70;99.90;;;;;;5034064;28;20849;-67
2022/11/18 03:42:44;;;;;;;73.23;11.90;;;7.70;99.90;;;;;;5034106;28;20464;-67
2022/11/18 03:45:17;;;;;;;84.03;12.90;;;7.70;99.90;;;;;;5034011;28;20527;-67
2022/11/18 03:47:50;;;;;;;94.70;14.50;;;7.70;99.90;;;;;;5034476;28;20865;-67
2022/11/18 03:50:21;;;;;;;99.03;14.20;;;7.70;99.90;;;;;;5034154;28;20450;-67
2022/11/18 03:52:50;;;;;;;119.20;15.73;;;7.70;99.90;;;;;;5033711;28;20490;-67
2022/11/18 03:55:20;;;;;;;176.63;17.53;;;7.70;99.90;;;;;;5033416;28;20487;-67
2022/11/18 03:57:54;;;;;;;205.97;16.80;;;7.70;99.90;;;;;;5033265;28;20511;-67
2022/11/18 04:00:22;;;;;;;82.60;12.83;;;7.70;99.90;;;;;;5034256;28;20453;-67
2022/11/18 04:02:50;;;;;;;90.57;11.93;;;7.60;99.90;;;;;;5033812;28;20549;-67
2022/11/18 04:05:18;;;;;;;86.23;11.13;;;7.60;99.90;;;;;;5033124;28;20473;-67
2022/11/18 04:07:55;;;;;;;69.27;11.17;;;7.50;99.90;;;;;;5034116;28;20508;-67
2022/11/18 04:10:26;;;;;;;88.77;12.70;;;7.50;99.90;;;;;;5034194;28;20453;-67
2022/11/18 04:12:57;;;;;;;106.87;12.00;;;7.50;99.90;;;;;;5033493;28;20490;-67
2022/11/18 04:15:26;;;;;;;37.37;11.17;;;7.40;99.90;;;;;;5033408;28;20461;-67
2022/11/18 04:17:52;;;;;;;74.60;11.80;;;7.40;99.90;;;;;;5033785;28;20457;-67
2022/11/18 04:20:21;;;;;;;83.00;12.60;;;7.40;99.90;;;;;;5033880;28;20462;-67
2022/11/18 04:22:48;;;;;;;49.83;10.53;;;7.40;99.90;;;;;;5033352;28;21008;-67
2022/11/18 04:25:14;;;;;;;57.90;12.07;;;7.40;99.90;;;;;;5033181;28;20458;-67
2022/11/18 04:27:41;;;;;;;37.73;12.03;;;7.40;99.90;;;;;;5033187;28;20457;-67
2022/11/18 04:30:09;;;;;;;38.77;11.13;;;7.30;99.90;;;;;;5033763;28;20569;-67
2022/11/18 04:32:37;;;;;;;34.40;10.53;;;7.30;99.90;;;;;;5033099;28;20453;-67
2022/11/18 04:35:04;;;;;;;56.87;12.93;;;7.30;99.90;;;;;;5032961;28;20504;-67
2022/11/18 04:37:31;;;;;;;45.87;12.67;;;7.20;99.90;;;;;;5033007;28;20461;-65
2022/11/18 04:39:58;;;;;;;30.93;12.50;;;7.20;99.90;;;;;;5033505;28;20822;-65
2022/11/18 04:42:24;;;;;;;50.47;12.93;;;7.20;99.90;;;;;;5032504;28;20449;-65
2022/11/18 04:44:51;;;;;;;46.77;12.33;;;7.20;99.90;;;;;;5033039;28;20460;-65
2022/11/18 04:47:18;;;;;;;54.87;12.83;;;7.20;99.90;;;;;;5033258;28;20563;-65
2022/11/18 04:49:46;;;;;;;34.20;11.47;;;7.10;99.90;;;;;;5033519;28;20449;-65
2022/11/18 04:52:13;;;;;;;61.80;12.70;;;7.10;99.90;;;;;;5032788;28;20945;-65
2022/11/18 04:54:39;;;;;;;54.10;12.60;;;7.10;99.90;;;;;;5032832;28;20536;-65
2022/11/18 04:57:06;;;;;;;54.70;13.73;;;7.10;99.90;;;;;;5032920;28;20457;-65
2022/11/18 04:59:33;;;;;;;65.53;14.17;;;7.10;99.90;;;;;;5032988;28;20460;-65
2022/11/18 05:02:00;;;;;;;58.50;13.17;;;7.20;99.90;;;;;;5032771;28;20461;-65
2022/11/18 05:04:29;;;;;;;46.00;11.13;;;7.20;99.90;;;;;;5032796;28;21074;-65
2022/11/18 05:06:59;;;;;;;39.13;11.73;;;7.20;99.90;;;;;;5012698;28;20450;-65
2022/11/18 05:09:26;;;;;;;41.70;12.23;;;7.10;99.90;;;;;;5030598;28;20457;-65
2022/11/18 05:14:38;;;;;;;31.60;12.10;;;7.10;99.90;;;;;;5031878;28;20495;-65
2022/11/18 05:17:07;;;;;;;32.80;11.23;;;7.10;99.90;;;;;;5032586;28;20465;-65
2022/11/18 05:19:34;;;;;;;24.20;10.37;;;7.10;99.90;;;;;;5032403;28;20462;-65
2022/11/18 05:22:02;;;;;;;30.67;10.77;;;7.10;99.90;;;;;;5032406;28;20453;-65
2022/11/18 05:24:28;;;;;;;26.87;10.80;;;7.10;99.90;;;;;;5032376;28;20469;-66
2022/11/18 05:26:55;;;;;;;23.93;10.70;;;7.10;99.90;;;;;;5032323;28;20456;-67
2022/11/18 05:29:22;;;;;;;23.13;9.67;;;7.10;99.90;;;;;;5032769;28;20541;-67
2022/11/18 05:31:49;;;;;;;17.13;8.83;;;7.10;99.90;;;;;;5031990;28;20453;-67
2022/11/18 05:34:17;;;;;;;15.33;8.03;;;7.00;99.90;;;;;;5032033;28;20491;-67
2022/11/18 05:36:44;;;;;;;15.03;7.50;;;7.00;99.90;;;;;;5032198;28;20484;-65
2022/11/18 05:39:12;;;;;;;17.67;7.50;;;7.00;99.90;;;;;;5031876;28;20514;-65
2022/11/18 05:44:23;;;;;;;15.27;7.97;;;7.00;99.90;;;;;;5031093;28;20464;-65
2022/11/18 05:46:49;;;;;;;13.60;8.30;;;7.00;99.90;;;;;;5031280;28;20461;-65
2022/11/18 05:49:16;;;;;;;15.17;8.17;;;7.00;99.90;;;;;;5032182;28;20465;-65
2022/11/18 05:51:43;;;;;;;22.00;8.97;;;7.00;99.90;;;;;;5031926;28;20482;-65
2022/11/18 05:54:13;;;;;;;21.93;9.27;;;7.10;99.90;;;;;;5031639;28;20496;-65
2022/11/18 05:56:43;;;;;;;19.20;9.03;;;7.00;99.90;;;;;;5031667;28;20461;-65
2022/11/18 05:59:10;;;;;;;17.40;8.67;;;7.10;99.90;;;;;;5031988;28;20973;-65
2022/11/18 06:01:41;;;;;;;20.50;8.63;;;7.10;99.90;;;;;;5031167;28;20458;-67
2022/11/18 06:04:12;;;;;;;14.20;7.63;;;7.10;99.90;;;;;;5031291;28;20470;-67
2022/11/18 06:06:39;;;;;;;14.90;8.47;;;7.10;99.90;;;;;;5032203;28;20789;-67
2022/11/18 06:09:08;;;;;;;25.20;9.60;;;7.20;99.90;;;;;;5031163;28;20563;-65
2022/11/18 06:11:41;;;;;;;29.10;9.50;;;7.20;99.90;;;;;;5031253;28;20463;-65
2022/11/18 06:14:12;;;;;;;15.63;7.60;;;7.20;99.90;;;;;;5031426;28;20896;-65
2022/11/18 06:16:43;;;;;;;11.10;6.97;;;7.20;99.90;;;;;;5031796;28;20457;-66
2022/11/18 06:19:10;;;;;;;17.60;8.10;;;7.20;99.90;;;;;;5031205;28;20857;-65
2022/11/18 06:21:37;;;;;;;16.30;8.37;;;7.20;99.90;;;;;;5031240;28;20457;-65
2022/11/18 06:24:06;;;;;;;14.57;8.33;;;7.20;99.90;;;;;;5030960;28;20809;-65
2022/11/18 06:26:32;;;;;;;15.83;8.90;;;7.20;99.90;;;;;;5031477;28;20453;-67
2022/11/18 06:29:00;;;;;;;14.70;8.23;;;7.30;99.90;;;;;;5031002;28;20457;-65
2022/11/18 06:31:27;;;;;;;17.43;7.80;;;7.30;99.90;;;;;;5016681;28;20462;-65
2022/11/18 06:33:54;;;;;;;15.27;8.60;;;7.30;99.90;;;;;;5027841;28;20539;-65
2022/11/18 06:36:21;;;;;;;16.73;7.60;;;7.30;99.90;;;;;;5030835;28;20462;-65
2022/11/18 06:38:48;;;;;;;12.77;7.40;;;7.30;99.90;;;;;;5031210;28;20465;-65
2022/11/18 06:41:14;;;;;;;14.43;9.10;;;7.20;99.90;;;;;;5031224;28;20819;-65
2022/11/18 06:43:40;;;;;;;12.60;7.90;;;7.20;99.90;;;;;;5030863;28;20520;-65
2022/11/18 06:48:55;;;;;;;17.73;7.30;;;7.20;99.90;;;;;;5030764;28;20513;-65
2022/11/18 06:51:22;;;;;;;11.70;7.77;;;7.30;99.90;;;;;;5031188;28;20450;-65
2022/11/18 06:53:49;;;;;;;13.90;7.63;;;7.20;99.90;;;;;;5030643;28;20496;-65
2022/11/18 06:56:18;;;;;;;13.33;7.70;;;7.20;99.90;;;;;;5030740;28;20465;-66
2022/11/18 06:58:45;;;;;;;10.17;7.10;;;7.20;99.90;;;;;;5030799;28;20854;-66
2022/11/18 07:01:15;;;;;;;12.90;7.73;;;7.20;99.90;;;;;;5030050;28;20464;-65
2022/11/18 07:03:43;;;;;;;11.80;7.70;;;7.20;99.90;;;;;;5030427;28;20485;-65
2022/11/18 07:06:10;;;;;;;13.87;7.60;;;7.20;99.90;;;;;;5031034;28;20452;-65
2022/11/18 07:08:38;;;;;;;11.30;7.90;;;7.20;99.90;;;;;;5030664;28;20450;-65
2022/11/18 07:11:06;;;;;;;12.10;7.97;;;7.20;99.90;;;;;;5030021;28;20957;-65
2022/11/18 07:13:33;;;;;;;14.77;7.97;;;7.20;99.90;;;;;;5030486;28;20486;-65
2022/11/18 07:16:05;;;;;;;13.33;8.00;;;7.30;99.90;;;;;;5030783;28;20488;-65
2022/11/18 07:18:34;;;;;;;15.70;7.80;;;7.30;99.90;;;;;;5030675;28;20488;-65
2022/11/18 07:21:04;;;;;;;12.00;7.80;;;7.30;99.90;;;;;;5030740;28;20451;-65
2022/11/18 07:23:32;;;;;;;10.47;6.83;;;7.30;99.90;;;;;;5025741;28;20831;-65
2022/11/18 07:25:59;;;;;;;16.03;8.07;;;7.40;99.90;;;;;;5016538;28;20462;-65
2022/11/18 07:28:26;;;;;;;16.03;7.10;;;7.40;99.90;;;;;;5015014;28;21104;-67
2022/11/18 07:30:53;;;;;;;10.00;7.10;;;7.40;99.90;;;;;;5014264;28;20464;-66
2022/11/18 07:33:20;;;;;;;9.37;6.97;;;7.40;99.90;;;;;;5020026;28;20474;-66
2022/11/18 07:35:49;;;;;;;12.27;7.10;;;7.40;99.90;;;;;;5020785;28;20508;-67
2022/11/18 07:38:16;;;;;;;8.63;5.90;;;7.40;99.90;;;;;;5021799;28;20484;-67
2022/11/18 07:40:43;;;;;;;8.03;5.80;;;7.40;99.90;;;;;;5020694;28;20464;-66
2022/11/18 07:43:09;;;;;;;9.63;5.77;;;7.40;99.90;;;;;;5021752;28;20475;-66
2022/11/18 07:45:36;;;;;;;14.37;5.83;;;7.40;99.90;;;;;;5019942;28;20475;-66
2022/11/18 07:48:04;;;;;;;10.60;6.87;;;7.50;99.90;;;;;;5019228;28;20458;-67
2022/11/18 07:50:30;;;;;;;12.50;7.33;;;7.50;99.90;;;;;;5019398;28;20540;-66
2022/11/18 07:52:58;;;;;;;15.30;7.30;;;7.50;99.90;;;;;;5016606;28;20948;-68
2022/11/18 07:55:25;;;;;;;10.82;6.90;;;7.60;99.90;;;;;;5014594;28;20461;-66
2022/11/18 07:57:52;;;;;;;9.00;6.30;;;7.60;99.90;;;;;;5018801;28;20681;-66
2022/11/18 08:00:19;;;;;;;9.63;6.87;;;7.70;99.90;;;;;;5020940;28;20472;-66
2022/11/18 08:02:50;;;;;;;14.80;6.60;;;7.70;99.90;;;;;;5021257;28;20466;-66
2022/11/18 08:05:17;;;;;;;9.23;6.67;;;7.80;99.90;;;;;;5021881;28;20456;-65
2022/11/18 08:07:44;;;;;;;14.00;6.07;;;7.80;99.90;;;;;;5021741;28;20517;-66
2022/11/18 08:10:12;;;;;;;8.87;6.50;;;7.90;99.90;;;;;;5031822;28;20457;-66
2022/11/18 08:12:38;;;;;;;9.43;7.30;;;8.00;99.90;;;;;;5031667;28;20464;-66
2022/11/18 08:15:06;;;;;;;13.47;6.77;;;8.00;99.90;;;;;;5032349;28;20485;-66
2022/11/18 08:17:33;;;;;;;11.63;7.63;;;8.10;99.90;;;;;;5031648;28;20450;-66
2022/11/18 08:19:59;;;;;;;11.80;7.43;;;8.20;99.90;;;;;;5032191;28;20528;-67
2022/11/18 08:22:26;;;;;;;10.63;7.80;;;8.20;99.90;;;;;;5033198;28;20496;-66
2022/11/18 08:24:53;;;;;;;12.13;7.70;;;8.30;99.90;;;;;;5032785;28;20449;-67
2022/11/18 08:27:21;;;;;;;13.73;8.67;;;8.40;99.90;;;;;;5033179;28;20464;-66
2022/11/18 08:29:47;;;;;;;11.37;7.43;;;8.50;99.90;;;;;;5033276;28;20449;-67
2022/11/18 08:32:14;;;;;;;9.43;7.13;;;8.50;99.90;;;;;;5033211;28;20457;-66
2022/11/18 08:34:41;;;;;;;13.57;8.97;;;8.50;99.90;;;;;;5033096;28;20486;-67
2022/11/18 08:37:07;;;;;;;12.87;7.67;;;8.60;99.90;;;;;;5033410;28;20973;-67
2022/11/18 08:39:34;;;;;;;14.40;8.40;;;8.80;99.90;;;;;;5032996;28;20454;-67
2022/11/18 08:42:01;;;;;;;11.07;7.67;;;9.00;99.90;;;;;;5032333;28;20485;-67
2022/11/18 08:44:32;;;;;;;9.63;7.00;;;9.10;99.90;;;;;;5032898;28;20889;-66
2022/11/18 08:46:59;;;;;;;13.93;7.40;;;9.20;99.90;;;;;;5013547;28;20549;-67
2022/11/18 08:49:25;;;;;;;8.90;7.10;;;9.20;99.90;;;;;;5013585;28;20458;-67
2022/11/18 08:51:52;;;;;;;12.67;7.73;;;9.30;99.90;;;;;;5012855;28;20455;-67
2022/11/18 08:54:19;;;;;;;9.83;7.17;;;9.30;99.90;;;;;;5012875;28;20498;-67
2022/11/18 08:56:45;;;;;;;11.57;7.67;;;9.40;99.90;;;;;;5013003;28;20464;-67
2022/11/18 08:59:12;;;;;;;8.73;7.53;;;9.80;99.90;;;;;;5013637;28;20500;-67
2022/11/18 09:01:42;;;;;;;8.40;6.40;;;10.30;99.90;;;;;;5013081;28;20451;-67
2022/11/18 09:04:09;;;;;;;8.63;6.40;;;10.70;99.90;;;;;;5013328;28;20471;-66
2022/11/18 09:06:37;;;;;;;7.57;6.00;;;11.00;99.90;;;;;;5030465;28;20447;-67
2022/11/18 09:09:04;;;;;;;9.70;5.73;;;11.40;99.90;;;;;;5032703;28;20524;-67
2022/11/18 09:11:30;;;;;;;8.83;6.23;;;11.40;99.90;;;;;;5032393;28;20452;-66
2022/11/18 09:13:58;;;;;;;7.07;6.20;;;11.30;99.90;;;;;;5023912;28;20467;-67
2022/11/18 09:16:26;;;;;;;8.00;5.97;;;10.90;99.90;;;;;;5013026;28;20453;-66
2022/11/18 09:18:55;;;;;;;13.53;7.40;;;10.50;99.90;;;;;;5012655;28;20451;-67
2022/11/18 09:21:22;;;;;;;11.40;6.90;;;10.20;99.90;;;;;;5012363;28;20451;-66
2022/11/18 09:23:49;;;;;;;11.97;6.50;;;9.90;99.90;;;;;;5012368;28;20987;-66
2022/11/18 09:26:19;;;;;;;15.30;8.20;;;9.70;99.90;;;;;;5012642;28;20877;-66
2022/11/18 09:28:46;;;;;;;15.63;7.57;;;9.60;99.90;;;;;;5013271;28;20893;-66
2022/11/18 09:31:16;;;;;;;14.73;7.73;;;9.40;99.90;;;;;;5022457;28;20454;-66
2022/11/18 09:33:42;;;;;;;14.60;8.57;;;9.30;99.90;;;;;;5032032;28;20997;-66
2022/11/18 09:36:14;;;;;;;10.10;7.60;;;9.30;99.90;;;;;;5032089;28;20489;-66
2022/11/18 09:38:41;;;;;;;13.33;7.50;;;9.30;99.90;;;;;;5032501;28;20457;-67
2022/11/18 09:41:22;;;;;;;12.50;8.20;;;9.40;99.90;;;;;;5031947;28;20846;-66
2022/11/18 09:44:00;;;;;;;14.10;7.80;;;9.40;99.90;;;;;;5031562;28;20469;-66
2022/11/18 09:46:33;;;;;;;11.93;8.63;;;9.60;99.90;;;;;;5015991;28;20458;-66
2022/11/18 09:49:13;;;;;;;15.37;7.80;;;9.60;99.90;;;;;;5012781;28;20462;-66
2022/11/18 09:51:43;;;;;;;12.43;7.50;;;9.60;99.90;;;;;;5012050;28;21214;-66
2022/11/18 09:54:14;;;;;;;10.87;7.97;;;9.60;99.90;;;;;;5011162;28;20482;-64
2022/11/18 09:56:41;;;;;;;11.40;8.33;;;9.70;99.90;;;;;;5011947;28;20447;-65
2022/11/18 09:59:13;;;;;;;14.70;8.07;;;9.90;99.90;;;;;;5012493;28;20871;-65
2022/11/18 10:01:40;;;;;;;9.30;7.27;;;10.00;99.90;;;;;;5011939;28;20475;-65
2022/11/18 10:04:13;;;;;;;15.30;7.97;;;10.20;99.90;;;;;;5012243;28;20475;-65
2022/11/18 10:06:41;;;;;;;12.60;7.40;;;10.40;99.90;;;;;;5029972;28;20465;-65
2022/11/18 10:09:26;;;;;;;17.40;7.93;;;10.70;99.90;;;;;;5031348;28;20872;-65
2022/11/18 10:12:14;;;;;;;21.43;7.70;;;11.00;99.90;;;;;;5031586;28;20537;-65
2022/11/18 10:14:57;;;;;;;10.27;7.13;;;11.40;99.90;;;;;;5018489;28;20582;-65
2022/11/18 10:17:39;;;;;;;9.90;6.80;;;12.00;99.90;;;;;;5011859;28;20454;-65
2022/11/18 10:20:19;;;;;;;11.70;6.47;;;12.50;99.90;;;;;;5011866;28;20933;-66
2022/11/18 10:22:52;;;;;;;8.80;6.17;;;13.00;99.90;;;;;;5011494;28;21018;-65
2022/11/18 10:25:19;;;;;;;11.47;6.27;;;13.00;99.90;;;;;;5011878;28;20453;-65
2022/11/18 10:27:47;;;;;;;8.03;5.60;;;12.90;99.90;;;;;;5011962;28;20456;-65
2022/11/18 10:30:16;;;;;;;10.47;6.33;;;12.50;99.90;;;;;;5014351;28;20504;-65
2022/11/18 10:32:58;;;;;;;12.33;6.47;;;12.40;99.90;;;;;;5030723;28;21064;-65
2022/11/18 10:35:28;;;;;;;13.03;6.60;;;12.70;99.90;;;;;;5031165;28;20543;-65
2022/11/18 10:38:05;;;;;;;8.00;5.70;;;12.50;99.90;;;;;;5031170;28;20863;-65
2022/11/18 10:40:33;;;;;;;10.60;6.37;;;12.40;99.90;;;;;;5031445;28;20458;-65
2022/11/18 10:43:00;;;;;;;8.53;6.67;;;12.30;99.90;;;;;;5031612;28;20860;-65
2022/11/18 10:45:30;;;;;;;10.57;7.07;;;12.20;99.90;;;;;;5023493;28;20812;-65
2022/11/18 10:48:07;;;;;;;10.50;6.70;;;11.90;99.90;;;;;;5011587;28;20457;-65
2022/11/18 10:50:36;;;;;;;10.40;6.70;;;11.70;99.90;;;;;;5011108;28;20447;-65
2022/11/18 10:53:06;;;;;;;13.47;7.67;;;11.50;99.90;;;;;;5011528;28;21023;-65
2022/11/18 10:55:33;;;;;;;12.23;6.80;;;11.50;99.90;;;;;;5011339;28;20514;-65
2022/11/18 10:58:09;;;;;;;8.50;6.83;;;11.50;99.90;;;;;;5011224;28;20458;-65
2022/11/18 11:00:45;;;;;;;9.90;6.77;;;11.40;99.90;;;;;;5011440;28;20483;-65
2022/11/18 11:03:22;;;;;;;14.37;8.50;;;11.20;99.90;;;;;;5011673;28;20471;-65
2022/11/18 11:06:12;;;;;;;14.43;8.27;;;11.00;99.90;;;;;;5024112;28;20866;-65
2022/11/18 11:08:48;;;;;;;14.67;9.67;;;10.80;99.90;;;;;;5035123;28;20450;-65
2022/11/18 11:11:24;;;;;;;14.50;8.47;;;10.60;99.90;;;;;;5034270;28;20962;-65
2022/11/18 11:13:53;;;;;;;16.17;8.27;;;10.60;99.90;;;;;;5030379;28;21076;-65
2022/11/18 11:16:21;;;;;;;11.97;7.47;;;10.50;99.90;;;;;;5015300;28;20483;-65
2022/11/18 11:18:53;;;;;;;15.80;8.50;;;10.50;99.90;;;;;;5015172;28;20462;-65
2022/11/18 11:21:23;;;;;;;14.40;9.43;;;10.40;99.90;;;;;;5014771;28;20867;-65
2022/11/18 11:23:51;;;;;;;14.87;8.90;;;10.40;99.90;;;;;;5014627;28;20493;-65
2022/11/18 11:26:27;;;;;;;17.83;10.27;;;10.30;99.90;;;;;;5015135;28;20446;-65
2022/11/18 11:29:00;;;;;;;18.90;11.03;;;10.30;99.90;;;;;;5014769;28;20529;-65
2022/11/18 11:31:35;;;;;;;23.80;11.87;;;10.20;99.90;;;;;;5026883;28;20457;-65
2022/11/18 11:34:11;;;;;;;26.73;14.53;;;10.20;99.90;;;;;;5034088;28;20466;-65
2022/11/18 11:36:45;;;;;;;21.70;13.10;;;10.20;99.90;;;;;;5034308;28;20481;-65
2022/11/18 11:39:49;;;;;;;27.10;16.07;;;10.20;99.90;;;;;;5034552;28;20468;-65
2022/11/18 11:42:28;;;;;;;24.33;15.53;;;10.30;99.90;;;;;;5034085;28;20457;-66
2022/11/18 11:45:13;;;;;;;27.70;18.00;;;10.40;99.90;;;;;;5031248;28;20519;-66
2022/11/18 11:47:55;;;;;;;21.10;14.30;;;10.40;99.90;;;;;;5014791;28;20451;-66
2022/11/18 11:50:29;;;;;;;11.23;8.30;;;10.50;99.90;;;;;;5014403;28;20982;-66
2022/11/18 11:53:14;;;;;;;13.57;6.80;;;10.60;99.90;;;;;;5014529;28;20475;-66
2022/11/18 11:55:56;;;;;;;9.90;5.60;;;10.70;99.90;;;;;;5014287;28;20493;-65
2022/11/18 11:58:37;;;;;;;9.57;4.87;;;10.90;99.90;;;;;;5014245;28;20457;-67
2022/11/18 12:01:16;;;;;;;4.13;3.67;;;11.00;99.90;;;;;;5013801;28;20451;-66
2022/11/18 12:03:47;;;;;;;6.23;3.70;;;11.00;99.90;;;;;;5014249;28;20471;-66
2022/11/18 12:06:14;;;;;;;4.57;3.60;;;11.00;99.90;;;;;;5028763;28;20446;-66
2022/11/18 12:09:01;;;;;;;7.33;3.27;;;10.90;99.90;;;;;;5033980;28;20672;-67
2022/11/18 12:11:33;;;;;;;5.97;3.50;;;10.90;99.90;;;;;;5033515;28;20458;-66
2022/11/18 12:14:03;;;;;;;9.20;3.80;;;10.80;99.90;;;;;;5029672;28;20471;-66
2022/11/18 12:16:36;;;;;;;8.03;3.23;;;10.70;99.90;;;;;;5013727;28;20518;-65
2022/11/18 12:19:08;;;;;;;6.00;3.50;;;10.70;99.90;;;;;;5013447;28;20451;-66
2022/11/18 12:22:08;;;;;;;11.73;3.67;;;10.70;99.90;;;;;;5013603;28;20989;-67
2022/11/18 12:24:37;;;;;;;5.17;3.50;;;10.90;99.90;;;;;;4972601;28;20467;-67
2022/11/18 12:27:13;;;;;;;13.23;4.10;;;11.10;99.90;;;;;;4972111;28;20462;-66
2022/11/18 12:29:54;;;;;;;7.43;3.57;;;11.20;99.90;;;;;;4993621;28;20758;-66
2022/11/18 12:32:29;;;;;;;5.13;3.67;;;11.20;99.90;;;;;;5033015;28;20446;-66
2022/11/18 12:35:00;;;;;;;9.33;3.60;;;11.20;99.90;;;;;;5033246;28;20449;-66
2022/11/18 12:37:45;;;;;;;5.63;3.57;;;11.20;99.90;;;;;;5033469;28;20442;-66
2022/11/18 12:40:34;;;;;;;6.53;3.53;;;11.20;99.90;;;;;;5032823;28;20450;-66
2022/11/18 12:45:51;;;;;;;14.10;3.40;;;11.10;99.90;;;;;;5022906;28;20458;-66
2022/11/18 12:48:38;;;;;;;4.10;2.70;;;11.10;99.90;;;;;;5013155;28;20455;-66
2022/11/18 12:51:48;;;;;;;3.77;2.97;;;11.10;99.90;;;;;;5012863;28;20970;-65
2022/11/18 12:54:30;;;;;;;8.50;2.87;;;11.20;99.90;;;;;;5018778;28;20477;-66
2022/11/18 12:57:00;;;;;;;4.13;3.27;;;11.30;99.90;;;;;;5020739;28;20491;-66
2022/11/18 12:59:30;;;;;;;8.83;3.10;;;11.20;99.90;;;;;;5019772;28;20454;-66
2022/11/18 13:02:05;;;;;;;7.00;3.40;;;11.30;99.90;;;;;;5019842;28;20496;-66
2022/11/18 13:04:32;;;;;;;6.13;3.27;;;11.30;99.90;;;;;;5020431;28;20469;-66
2022/11/18 13:06:59;;;;;;;10.30;4.17;;;11.30;99.90;;;;;;5018932;28;20447;-66
2022/11/18 13:09:29;;;;;;;6.73;2.93;;;11.30;99.90;;;;;;5018443;28;20493;-66
2022/11/18 13:11:59;;;;;;;8.60;3.00;;;11.40;99.90;;;;;;5018997;28;21029;-66